sensor_id;sensor_type;location;lat;lon;timestamp;P1;durP1;ratioP1;P2;durP2;ratioP2
28028;SDS011;15345;59.364;18.016;2023-08-30T00:00:57;3.88;;;2.00;;
28028;SDS011;15345;59.364;18.016;2023-08-30T00:02:17;2.03;;;1.58;;
28028;SDS011;15345;59.364;18.016;2023-08-30T00:03:35;3.38;;;1.75;;
28028;SDS011;15345;59.364;18.016;2023-08-30T00:04:58;5.05;;;1.42;;
28028;SDS011;15345;59.364;18.016;2023-08-30T00:06:17;2.72;;;1.52;;
28028;SDS011;15345;59.364;18.016;2023-08-30T00:07:37;4.45;;;1.83;;
28028;SDS011;15345;59.364;18.016;2023-08-30T00:08:56;3.47;;;2.67;;
28028;SDS011;15345;59.364;18.016;2023-08-30T00:10:16;6.65;;;4.15;;
28028;SDS011;15345;59.364;18.016;2023-08-30T00:11:34;3.08;;;2.33;;
28028;SDS011;15345;59.364;18.016;2023-08-30T00:12:53;3.90;;;2.28;;
28028;SDS011;15345;59.364;18.016;2023-08-30T00:14:12;6.57;;;3.70;;
28028;SDS011;15345;59.364;18.016;2023-08-30T00:15:31;10.40;;;4.68;;
28028;SDS011;15345;59.364;18.016;2023-08-30T00:16:50;8.30;;;3.67;;
28028;SDS011;15345;59.364;18.016;2023-08-30T00:18:09;8.15;;;4.55;;
28028;SDS011;15345;59.364;18.016;2023-08-30T00:19:28;8.20;;;4.60;;
28028;SDS011;15345;59.364;18.016;2023-08-30T00:20:47;7.97;;;3.90;;
28028;SDS011;15345;59.364;18.016;2023-08-30T00:22:06;5.30;;;3.50;;
28028;SDS011;15345;59.364;18.016;2023-08-30T00:23:28;5.13;;;4.10;;
28028;SDS011;15345;59.364;18.016;2023-08-30T00:24:47;4.43;;;3.25;;
28028;SDS011;15345;59.364;18.016;2023-08-30T00:26:06;4.20;;;1.90;;
28028;SDS011;15345;59.364;18.016;2023-08-30T00:27:25;4.10;;;1.90;;
28028;SDS011;15345;59.364;18.016;2023-08-30T00:28:45;6.43;;;2.00;;
28028;SDS011;15345;59.364;18.016;2023-08-30T00:30:04;4.53;;;2.92;;
28028;SDS011;15345;59.364;18.016;2023-08-30T00:31:23;2.80;;;1.98;;
28028;SDS011;15345;59.364;18.016;2023-08-30T00:32:42;3.05;;;1.70;;
28028;SDS011;15345;59.364;18.016;2023-08-30T00:34:01;3.45;;;1.80;;
28028;SDS011;15345;59.364;18.016;2023-08-30T00:35:21;5.18;;;1.63;;
28028;SDS011;15345;59.364;18.016;2023-08-30T00:36:40;2.63;;;2.15;;
28028;SDS011;15345;59.364;18.016;2023-08-30T00:37:59;2.55;;;1.80;;
28028;SDS011;15345;59.364;18.016;2023-08-30T00:39:19;2.38;;;1.70;;
28028;SDS011;15345;59.364;18.016;2023-08-30T00:40:38;2.47;;;1.65;;
28028;SDS011;15345;59.364;18.016;2023-08-30T00:42:01;4.68;;;1.73;;
28028;SDS011;15345;59.364;18.016;2023-08-30T00:43:24;2.30;;;1.80;;
28028;SDS011;15345;59.364;18.016;2023-08-30T00:44:44;1.75;;;1.65;;
28028;SDS011;15345;59.364;18.016;2023-08-30T00:46:03;7.82;;;1.67;;
28028;SDS011;15345;59.364;18.016;2023-08-30T00:47:23;4.45;;;1.60;;
28028;SDS011;15345;59.364;18.016;2023-08-30T00:48:43;3.88;;;1.85;;
28028;SDS011;15345;59.364;18.016;2023-08-30T00:50:02;2.22;;;1.73;;
28028;SDS011;15345;59.364;18.016;2023-08-30T00:51:21;2.72;;;1.70;;
28028;SDS011;15345;59.364;18.016;2023-08-30T00:52:40;2.63;;;1.30;;
28028;SDS011;15345;59.364;18.016;2023-08-30T00:53:59;5.22;;;1.80;;
28028;SDS011;15345;59.364;18.016;2023-08-30T00:55:19;2.75;;;1.40;;
28028;SDS011;15345;59.364;18.016;2023-08-30T00:56:37;3.92;;;1.60;;
28028;SDS011;15345;59.364;18.016;2023-08-30T00:57:56;2.58;;;1.73;;
28028;SDS011;15345;59.364;18.016;2023-08-30T00:59:16;2.97;;;1.70;;
28028;SDS011;15345;59.364;18.016;2023-08-30T01:00:35;2.33;;;1.33;;
28028;SDS011;15345;59.364;18.016;2023-08-30T01:01:54;3.65;;;1.70;;
28028;SDS011;15345;59.364;18.016;2023-08-30T01:03:14;4.30;;;1.55;;
28028;SDS011;15345;59.364;18.016;2023-08-30T01:04:33;3.00;;;1.25;;
28028;SDS011;15345;59.364;18.016;2023-08-30T01:05:52;2.33;;;1.60;;
28028;SDS011;15345;59.364;18.016;2023-08-30T01:07:13;1.60;;;1.40;;
28028;SDS011;15345;59.364;18.016;2023-08-30T01:08:32;4.80;;;1.52;;
28028;SDS011;15345;59.364;18.016;2023-08-30T01:09:50;1.30;;;1.20;;
28028;SDS011;15345;59.364;18.016;2023-08-30T01:11:20;3.70;;;1.58;;
28028;SDS011;15345;59.364;18.016;2023-08-30T01:12:47;2.65;;;1.48;;
28028;SDS011;15345;59.364;18.016;2023-08-30T01:14:08;1.85;;;1.60;;
28028;SDS011;15345;59.364;18.016;2023-08-30T01:15:27;1.98;;;1.40;;
28028;SDS011;15345;59.364;18.016;2023-08-30T01:16:48;3.47;;;1.70;;
28028;SDS011;15345;59.364;18.016;2023-08-30T01:18:07;2.00;;;1.50;;
28028;SDS011;15345;59.364;18.016;2023-08-30T01:20:49;1.50;;;1.40;;
28028;SDS011;15345;59.364;18.016;2023-08-30T01:22:15;3.22;;;1.45;;
28028;SDS011;15345;59.364;18.016;2023-08-30T01:26:38;4.15;;;1.58;;
28028;SDS011;15345;59.364;18.016;2023-08-30T01:28:03;8.00;;;1.92;;
28028;SDS011;15345;59.364;18.016;2023-08-30T01:29:23;2.58;;;2.00;;
28028;SDS011;15345;59.364;18.016;2023-08-30T01:30:42;4.63;;;1.73;;
28028;SDS011;15345;59.364;18.016;2023-08-30T01:32:03;2.60;;;1.55;;
28028;SDS011;15345;59.364;18.016;2023-08-30T01:33:23;3.47;;;1.90;;
28028;SDS011;15345;59.364;18.016;2023-08-30T01:34:43;5.80;;;1.83;;
28028;SDS011;15345;59.364;18.016;2023-08-30T01:36:04;3.30;;;1.50;;
28028;SDS011;15345;59.364;18.016;2023-08-30T01:37:24;5.72;;;2.33;;
28028;SDS011;15345;59.364;18.016;2023-08-30T01:38:44;3.50;;;1.90;;
28028;SDS011;15345;59.364;18.016;2023-08-30T01:40:05;2.65;;;1.90;;
28028;SDS011;15345;59.364;18.016;2023-08-30T01:41:31;2.08;;;1.95;;
28028;SDS011;15345;59.364;18.016;2023-08-30T01:42:51;3.10;;;1.98;;
28028;SDS011;15345;59.364;18.016;2023-08-30T01:44:10;2.70;;;1.75;;
28028;SDS011;15345;59.364;18.016;2023-08-30T01:45:30;3.45;;;1.55;;
28028;SDS011;15345;59.364;18.016;2023-08-30T01:46:49;2.17;;;1.98;;
28028;SDS011;15345;59.364;18.016;2023-08-30T01:48:12;2.83;;;2.10;;
28028;SDS011;15345;59.364;18.016;2023-08-30T01:49:32;3.38;;;2.22;;
28028;SDS011;15345;59.364;18.016;2023-08-30T01:50:53;3.63;;;2.10;;
28028;SDS011;15345;59.364;18.016;2023-08-30T01:52:18;2.67;;;2.25;;
28028;SDS011;15345;59.364;18.016;2023-08-30T01:53:38;2.78;;;1.88;;
28028;SDS011;15345;59.364;18.016;2023-08-30T01:54:58;6.22;;;1.95;;
28028;SDS011;15345;59.364;18.016;2023-08-30T01:56:17;3.05;;;2.05;;
28028;SDS011;15345;59.364;18.016;2023-08-30T01:57:36;5.20;;;2.15;;
28028;SDS011;15345;59.364;18.016;2023-08-30T01:58:55;2.30;;;1.58;;
28028;SDS011;15345;59.364;18.016;2023-08-30T02:00:14;4.32;;;1.80;;
28028;SDS011;15345;59.364;18.016;2023-08-30T02:01:34;4.10;;;1.80;;
28028;SDS011;15345;59.364;18.016;2023-08-30T02:02:53;3.17;;;1.90;;
28028;SDS011;15345;59.364;18.016;2023-08-30T02:04:14;3.03;;;1.65;;
28028;SDS011;15345;59.364;18.016;2023-08-30T02:05:33;4.88;;;1.73;;
28028;SDS011;15345;59.364;18.016;2023-08-30T02:07:03;6.10;;;1.70;;
28028;SDS011;15345;59.364;18.016;2023-08-30T02:08:26;2.80;;;1.90;;
28028;SDS011;15345;59.364;18.016;2023-08-30T02:09:49;4.20;;;1.70;;
28028;SDS011;15345;59.364;18.016;2023-08-30T02:11:13;3.97;;;2.13;;
28028;SDS011;15345;59.364;18.016;2023-08-30T02:12:39;3.85;;;1.70;;
28028;SDS011;15345;59.364;18.016;2023-08-30T02:14:00;1.80;;;1.70;;
28028;SDS011;15345;59.364;18.016;2023-08-30T02:15:20;3.47;;;1.90;;
28028;SDS011;15345;59.364;18.016;2023-08-30T02:16:39;5.25;;;1.73;;
28028;SDS011;15345;59.364;18.016;2023-08-30T02:17:59;3.88;;;2.08;;
28028;SDS011;15345;59.364;18.016;2023-08-30T02:19:18;2.25;;;2.05;;
28028;SDS011;15345;59.364;18.016;2023-08-30T02:20:42;3.80;;;2.33;;
28028;SDS011;15345;59.364;18.016;2023-08-30T02:22:01;4.03;;;1.65;;
28028;SDS011;15345;59.364;18.016;2023-08-30T02:23:22;2.00;;;1.80;;
28028;SDS011;15345;59.364;18.016;2023-08-30T02:24:41;3.97;;;1.88;;
28028;SDS011;15345;59.364;18.016;2023-08-30T02:26:00;3.78;;;1.75;;
28028;SDS011;15345;59.364;18.016;2023-08-30T02:27:24;2.35;;;2.15;;
28028;SDS011;15345;59.364;18.016;2023-08-30T02:30:05;7.47;;;2.28;;
28028;SDS011;15345;59.364;18.016;2023-08-30T02:31:27;2.67;;;1.92;;
28028;SDS011;15345;59.364;18.016;2023-08-30T02:32:48;6.28;;;1.90;;
28028;SDS011;15345;59.364;18.016;2023-08-30T02:34:07;2.40;;;1.77;;
28028;SDS011;15345;59.364;18.016;2023-08-30T02:35:26;3.90;;;1.90;;
28028;SDS011;15345;59.364;18.016;2023-08-30T02:36:45;3.90;;;2.22;;
28028;SDS011;15345;59.364;18.016;2023-08-30T02:38:04;3.30;;;2.30;;
28028;SDS011;15345;59.364;18.016;2023-08-30T02:39:24;5.22;;;2.13;;
28028;SDS011;15345;59.364;18.016;2023-08-30T02:40:42;3.42;;;2.50;;
28028;SDS011;15345;59.364;18.016;2023-08-30T02:42:01;1.90;;;1.80;;
28028;SDS011;15345;59.364;18.016;2023-08-30T02:43:21;3.63;;;2.05;;
28028;SDS011;15345;59.364;18.016;2023-08-30T02:44:40;2.30;;;2.10;;
28028;SDS011;15345;59.364;18.016;2023-08-30T02:45:59;2.70;;;2.13;;
28028;SDS011;15345;59.364;18.016;2023-08-30T02:47:20;3.88;;;2.08;;
28028;SDS011;15345;59.364;18.016;2023-08-30T02:48:39;3.10;;;1.90;;
28028;SDS011;15345;59.364;18.016;2023-08-30T02:49:59;4.32;;;2.60;;
28028;SDS011;15345;59.364;18.016;2023-08-30T02:51:17;2.85;;;2.20;;
28028;SDS011;15345;59.364;18.016;2023-08-30T02:52:36;2.33;;;2.05;;
28028;SDS011;15345;59.364;18.016;2023-08-30T02:53:56;5.18;;;2.55;;
28028;SDS011;15345;59.364;18.016;2023-08-30T02:55:15;2.30;;;2.08;;
28028;SDS011;15345;59.364;18.016;2023-08-30T02:56:34;3.90;;;2.45;;
28028;SDS011;15345;59.364;18.016;2023-08-30T02:57:53;2.85;;;2.20;;
28028;SDS011;15345;59.364;18.016;2023-08-30T02:59:12;5.95;;;2.42;;
28028;SDS011;15345;59.364;18.016;2023-08-30T03:00:33;3.67;;;2.30;;
28028;SDS011;15345;59.364;18.016;2023-08-30T03:01:53;4.07;;;2.45;;
28028;SDS011;15345;59.364;18.016;2023-08-30T03:03:12;2.72;;;2.47;;
28028;SDS011;15345;59.364;18.016;2023-08-30T03:04:31;3.33;;;2.42;;
28028;SDS011;15345;59.364;18.016;2023-08-30T03:05:50;2.63;;;2.42;;
28028;SDS011;15345;59.364;18.016;2023-08-30T03:07:09;2.92;;;2.00;;
28028;SDS011;15345;59.364;18.016;2023-08-30T03:08:28;2.53;;;2.22;;
28028;SDS011;15345;59.364;18.016;2023-08-30T03:09:51;3.28;;;2.13;;
28028;SDS011;15345;59.364;18.016;2023-08-30T03:11:10;4.22;;;2.78;;
28028;SDS011;15345;59.364;18.016;2023-08-30T03:12:30;5.10;;;2.92;;
28028;SDS011;15345;59.364;18.016;2023-08-30T03:13:49;3.72;;;2.92;;
28028;SDS011;15345;59.364;18.016;2023-08-30T03:15:09;3.38;;;3.03;;
28028;SDS011;15345;59.364;18.016;2023-08-30T03:16:28;4.28;;;2.97;;
28028;SDS011;15345;59.364;18.016;2023-08-30T03:17:47;4.90;;;3.47;;
28028;SDS011;15345;59.364;18.016;2023-08-30T03:19:06;5.13;;;3.00;;
28028;SDS011;15345;59.364;18.016;2023-08-30T03:20:25;3.72;;;3.40;;
28028;SDS011;15345;59.364;18.016;2023-08-30T03:21:44;5.07;;;2.90;;
28028;SDS011;15345;59.364;18.016;2023-08-30T03:23:03;4.32;;;3.00;;
28028;SDS011;15345;59.364;18.016;2023-08-30T03:24:22;4.07;;;3.67;;
28028;SDS011;15345;59.364;18.016;2023-08-30T03:25:41;4.47;;;3.35;;
28028;SDS011;15345;59.364;18.016;2023-08-30T03:27:00;7.60;;;3.20;;
28028;SDS011;15345;59.364;18.016;2023-08-30T03:28:18;3.97;;;2.63;;
28028;SDS011;15345;59.364;18.016;2023-08-30T03:29:37;4.00;;;3.13;;
28028;SDS011;15345;59.364;18.016;2023-08-30T03:30:56;7.95;;;3.22;;
28028;SDS011;15345;59.364;18.016;2023-08-30T03:32:16;6.30;;;2.80;;
28028;SDS011;15345;59.364;18.016;2023-08-30T03:33:36;3.25;;;2.90;;
28028;SDS011;15345;59.364;18.016;2023-08-30T03:34:55;3.40;;;2.58;;
28028;SDS011;15345;59.364;18.016;2023-08-30T03:36:15;2.90;;;2.55;;
28028;SDS011;15345;59.364;18.016;2023-08-30T03:37:34;4.18;;;2.67;;
28028;SDS011;15345;59.364;18.016;2023-08-30T03:38:53;4.20;;;2.95;;
28028;SDS011;15345;59.364;18.016;2023-08-30T03:40:12;3.63;;;2.83;;
28028;SDS011;15345;59.364;18.016;2023-08-30T03:41:32;6.55;;;3.25;;
28028;SDS011;15345;59.364;18.016;2023-08-30T03:42:51;6.95;;;3.58;;
28028;SDS011;15345;59.364;18.016;2023-08-30T03:44:10;6.60;;;3.58;;
28028;SDS011;15345;59.364;18.016;2023-08-30T03:45:33;8.93;;;3.97;;
28028;SDS011;15345;59.364;18.016;2023-08-30T03:46:53;20.55;;;4.38;;
28028;SDS011;15345;59.364;18.016;2023-08-30T03:48:12;10.23;;;4.45;;
28028;SDS011;15345;59.364;18.016;2023-08-30T03:49:31;9.77;;;4.00;;
28028;SDS011;15345;59.364;18.016;2023-08-30T03:50:50;10.63;;;3.83;;
28028;SDS011;15345;59.364;18.016;2023-08-30T03:52:09;13.48;;;3.97;;
28028;SDS011;15345;59.364;18.016;2023-08-30T03:53:28;7.22;;;3.85;;
28028;SDS011;15345;59.364;18.016;2023-08-30T03:54:49;4.38;;;3.30;;
28028;SDS011;15345;59.364;18.016;2023-08-30T03:56:07;7.55;;;3.50;;
28028;SDS011;15345;59.364;18.016;2023-08-30T03:57:26;6.38;;;4.05;;
28028;SDS011;15345;59.364;18.016;2023-08-30T03:58:45;7.82;;;3.35;;
28028;SDS011;15345;59.364;18.016;2023-08-30T04:00:04;4.20;;;2.95;;
28028;SDS011;15345;59.364;18.016;2023-08-30T04:01:24;5.68;;;3.78;;
28028;SDS011;15345;59.364;18.016;2023-08-30T04:02:42;4.35;;;3.70;;
28028;SDS011;15345;59.364;18.016;2023-08-30T04:04:02;4.28;;;3.63;;
28028;SDS011;15345;59.364;18.016;2023-08-30T04:05:22;5.55;;;3.20;;
28028;SDS011;15345;59.364;18.016;2023-08-30T04:06:41;6.03;;;3.33;;
28028;SDS011;15345;59.364;18.016;2023-08-30T04:08:01;6.18;;;3.30;;
28028;SDS011;15345;59.364;18.016;2023-08-30T04:09:20;9.07;;;3.70;;
28028;SDS011;15345;59.364;18.016;2023-08-30T04:10:40;4.38;;;3.53;;
28028;SDS011;15345;59.364;18.016;2023-08-30T04:12:00;6.88;;;3.63;;
28028;SDS011;15345;59.364;18.016;2023-08-30T04:13:19;7.75;;;3.58;;
28028;SDS011;15345;59.364;18.016;2023-08-30T04:14:38;3.85;;;3.22;;
28028;SDS011;15345;59.364;18.016;2023-08-30T04:15:57;4.90;;;3.00;;
28028;SDS011;15345;59.364;18.016;2023-08-30T04:17:17;8.48;;;3.63;;
28028;SDS011;15345;59.364;18.016;2023-08-30T04:18:36;4.95;;;3.30;;
28028;SDS011;15345;59.364;18.016;2023-08-30T04:19:55;3.45;;;3.15;;
28028;SDS011;15345;59.364;18.016;2023-08-30T04:21:14;6.75;;;3.53;;
28028;SDS011;15345;59.364;18.016;2023-08-30T04:22:33;4.65;;;3.60;;
28028;SDS011;15345;59.364;18.016;2023-08-30T04:23:53;11.77;;;4.82;;
28028;SDS011;15345;59.364;18.016;2023-08-30T04:25:12;7.93;;;4.00;;
28028;SDS011;15345;59.364;18.016;2023-08-30T04:26:31;7.68;;;3.72;;
28028;SDS011;15345;59.364;18.016;2023-08-30T04:27:50;5.00;;;3.50;;
28028;SDS011;15345;59.364;18.016;2023-08-30T04:29:09;11.48;;;3.97;;
28028;SDS011;15345;59.364;18.016;2023-08-30T04:30:28;9.18;;;4.38;;
28028;SDS011;15345;59.364;18.016;2023-08-30T04:31:47;8.05;;;3.55;;
28028;SDS011;15345;59.364;18.016;2023-08-30T04:33:06;6.93;;;3.00;;
28028;SDS011;15345;59.364;18.016;2023-08-30T04:34:25;4.32;;;3.40;;
28028;SDS011;15345;59.364;18.016;2023-08-30T04:35:44;5.00;;;3.58;;
28028;SDS011;15345;59.364;18.016;2023-08-30T04:37:03;10.60;;;3.30;;
28028;SDS011;15345;59.364;18.016;2023-08-30T04:38:22;5.70;;;3.60;;
28028;SDS011;15345;59.364;18.016;2023-08-30T04:39:41;5.55;;;3.03;;
28028;SDS011;15345;59.364;18.016;2023-08-30T04:41:00;6.05;;;3.10;;
28028;SDS011;15345;59.364;18.016;2023-08-30T04:42:21;7.43;;;3.05;;
28028;SDS011;15345;59.364;18.016;2023-08-30T04:43:40;5.93;;;3.00;;
28028;SDS011;15345;59.364;18.016;2023-08-30T04:44:59;7.47;;;3.20;;
28028;SDS011;15345;59.364;18.016;2023-08-30T04:46:19;8.38;;;3.83;;
28028;SDS011;15345;59.364;18.016;2023-08-30T04:47:38;5.05;;;3.38;;
28028;SDS011;15345;59.364;18.016;2023-08-30T04:49:03;5.82;;;3.60;;
28028;SDS011;15345;59.364;18.016;2023-08-30T04:50:27;3.60;;;3.30;;
28028;SDS011;15345;59.364;18.016;2023-08-30T04:51:53;3.78;;;3.30;;
28028;SDS011;15345;59.364;18.016;2023-08-30T04:53:41;4.18;;;2.95;;
28028;SDS011;15345;59.364;18.016;2023-08-30T04:55:28;8.57;;;3.90;;
28028;SDS011;15345;59.364;18.016;2023-08-30T05:00:48;4.88;;;3.13;;
28028;SDS011;15345;59.364;18.016;2023-08-30T05:10:08;6.55;;;3.28;;
28028;SDS011;15345;59.364;18.016;2023-08-30T05:11:42;5.45;;;3.30;;
28028;SDS011;15345;59.364;18.016;2023-08-30T05:13:01;4.57;;;2.97;;
28028;SDS011;15345;59.364;18.016;2023-08-30T05:16:37;3.38;;;3.08;;
28028;SDS011;15345;59.364;18.016;2023-08-30T05:17:59;4.75;;;2.90;;
28028;SDS011;15345;59.364;18.016;2023-08-30T05:19:18;42.72;;;4.38;;
28028;SDS011;15345;59.364;18.016;2023-08-30T05:20:48;4.45;;;2.63;;
28028;SDS011;15345;59.364;18.016;2023-08-30T05:22:09;4.90;;;2.42;;
28028;SDS011;15345;59.364;18.016;2023-08-30T05:23:29;3.80;;;2.50;;
28028;SDS011;15345;59.364;18.016;2023-08-30T05:24:48;4.47;;;3.05;;
28028;SDS011;15345;59.364;18.016;2023-08-30T05:26:08;6.20;;;3.28;;
28028;SDS011;15345;59.364;18.016;2023-08-30T05:27:27;4.30;;;3.00;;
28028;SDS011;15345;59.364;18.016;2023-08-30T05:28:46;3.15;;;2.85;;
28028;SDS011;15345;59.364;18.016;2023-08-30T05:30:05;5.15;;;2.80;;
28028;SDS011;15345;59.364;18.016;2023-08-30T05:31:27;4.85;;;2.92;;
28028;SDS011;15345;59.364;18.016;2023-08-30T05:35:06;4.95;;;3.30;;
28028;SDS011;15345;59.364;18.016;2023-08-30T05:40:21;5.53;;;3.70;;
28028;SDS011;15345;59.364;18.016;2023-08-30T05:41:49;8.05;;;3.25;;
28028;SDS011;15345;59.364;18.016;2023-08-30T05:43:18;5.80;;;3.88;;
28028;SDS011;15345;59.364;18.016;2023-08-30T05:44:59;4.90;;;3.13;;
28028;SDS011;15345;59.364;18.016;2023-08-30T05:48:36;4.30;;;3.95;;
28028;SDS011;15345;59.364;18.016;2023-08-30T05:53:35;9.98;;;4.47;;
28028;SDS011;15345;59.364;18.016;2023-08-30T05:55:20;5.32;;;3.97;;
28028;SDS011;15345;59.364;18.016;2023-08-30T05:59:03;4.68;;;3.97;;
28028;SDS011;15345;59.364;18.016;2023-08-30T06:00:38;6.95;;;3.58;;
28028;SDS011;15345;59.364;18.016;2023-08-30T06:02:27;3.58;;;3.28;;
28028;SDS011;15345;59.364;18.016;2023-08-30T06:04:21;4.40;;;4.03;;
28028;SDS011;15345;59.364;18.016;2023-08-30T06:07:37;5.90;;;3.17;;
28028;SDS011;15345;59.364;18.016;2023-08-30T06:08:57;5.82;;;3.88;;
28028;SDS011;15345;59.364;18.016;2023-08-30T06:10:16;6.47;;;3.38;;
28028;SDS011;15345;59.364;18.016;2023-08-30T06:11:35;7.63;;;3.50;;
28028;SDS011;15345;59.364;18.016;2023-08-30T06:13:29;4.82;;;4.00;;
28028;SDS011;15345;59.364;18.016;2023-08-30T06:14:45;4.45;;;3.08;;
28028;SDS011;15345;59.364;18.016;2023-08-30T06:16:33;3.50;;;3.20;;
28028;SDS011;15345;59.364;18.016;2023-08-30T06:17:55;6.15;;;3.47;;
28028;SDS011;15345;59.364;18.016;2023-08-30T06:19:14;5.60;;;3.17;;
28028;SDS011;15345;59.364;18.016;2023-08-30T06:21:49;3.95;;;2.92;;
28028;SDS011;15345;59.364;18.016;2023-08-30T06:23:08;3.50;;;3.20;;
28028;SDS011;15345;59.364;18.016;2023-08-30T06:24:27;8.38;;;3.50;;
28028;SDS011;15345;59.364;18.016;2023-08-30T06:25:53;3.85;;;2.85;;
28028;SDS011;15345;59.364;18.016;2023-08-30T06:27:12;4.85;;;3.08;;
28028;SDS011;15345;59.364;18.016;2023-08-30T06:28:31;4.45;;;3.28;;
28028;SDS011;15345;59.364;18.016;2023-08-30T06:29:50;5.60;;;3.47;;
28028;SDS011;15345;59.364;18.016;2023-08-30T06:31:09;7.05;;;3.63;;
28028;SDS011;15345;59.364;18.016;2023-08-30T06:32:28;3.67;;;3.08;;
28028;SDS011;15345;59.364;18.016;2023-08-30T06:33:47;6.07;;;3.60;;
28028;SDS011;15345;59.364;18.016;2023-08-30T06:35:06;3.95;;;3.28;;
28028;SDS011;15345;59.364;18.016;2023-08-30T06:36:25;5.30;;;2.60;;
28028;SDS011;15345;59.364;18.016;2023-08-30T06:37:44;4.28;;;3.00;;
28028;SDS011;15345;59.364;18.016;2023-08-30T06:39:03;3.83;;;3.00;;
28028;SDS011;15345;59.364;18.016;2023-08-30T06:40:23;7.75;;;3.50;;
28028;SDS011;15345;59.364;18.016;2023-08-30T06:41:42;3.70;;;3.40;;
28028;SDS011;15345;59.364;18.016;2023-08-30T06:43:01;3.97;;;3.58;;
28028;SDS011;15345;59.364;18.016;2023-08-30T06:44:19;5.65;;;3.85;;
28028;SDS011;15345;59.364;18.016;2023-08-30T06:45:41;3.85;;;3.15;;
28028;SDS011;15345;59.364;18.016;2023-08-30T06:47:00;3.58;;;3.35;;
28028;SDS011;15345;59.364;18.016;2023-08-30T06:48:19;3.83;;;3.03;;
28028;SDS011;15345;59.364;18.016;2023-08-30T06:49:38;4.00;;;3.05;;
28028;SDS011;15345;59.364;18.016;2023-08-30T06:50:57;4.15;;;2.90;;
28028;SDS011;15345;59.364;18.016;2023-08-30T06:52:17;3.53;;;3.22;;
28028;SDS011;15345;59.364;18.016;2023-08-30T06:53:36;3.83;;;2.95;;
28028;SDS011;15345;59.364;18.016;2023-08-30T06:54:55;4.80;;;2.70;;
28028;SDS011;15345;59.364;18.016;2023-08-30T06:56:14;3.78;;;3.17;;
28028;SDS011;15345;59.364;18.016;2023-08-30T06:57:33;3.72;;;3.22;;
28028;SDS011;15345;59.364;18.016;2023-08-30T06:58:52;3.40;;;3.20;;
28028;SDS011;15345;59.364;18.016;2023-08-30T07:00:11;4.68;;;2.97;;
28028;SDS011;15345;59.364;18.016;2023-08-30T07:01:30;5.93;;;3.63;;
28028;SDS011;15345;59.364;18.016;2023-08-30T07:02:49;5.07;;;3.10;;
28028;SDS011;15345;59.364;18.016;2023-08-30T07:04:08;4.50;;;2.85;;
28028;SDS011;15345;59.364;18.016;2023-08-30T07:05:27;4.63;;;2.97;;
28028;SDS011;15345;59.364;18.016;2023-08-30T07:06:46;3.50;;;3.20;;
28028;SDS011;15345;59.364;18.016;2023-08-30T07:08:05;3.30;;;3.00;;
28028;SDS011;15345;59.364;18.016;2023-08-30T07:09:24;5.00;;;2.50;;
28028;SDS011;15345;59.364;18.016;2023-08-30T07:10:47;3.28;;;2.20;;
28028;SDS011;15345;59.364;18.016;2023-08-30T07:12:06;5.68;;;3.05;;
28028;SDS011;15345;59.364;18.016;2023-08-30T07:13:25;4.32;;;2.30;;
28028;SDS011;15345;59.364;18.016;2023-08-30T07:14:44;3.95;;;2.78;;
28028;SDS011;15345;59.364;18.016;2023-08-30T07:16:03;4.50;;;2.50;;
28028;SDS011;15345;59.364;18.016;2023-08-30T07:17:22;5.90;;;2.92;;
28028;SDS011;15345;59.364;18.016;2023-08-30T07:18:41;6.00;;;2.70;;
28028;SDS011;15345;59.364;18.016;2023-08-30T07:20:00;4.93;;;2.58;;
28028;SDS011;15345;59.364;18.016;2023-08-30T07:21:19;4.03;;;2.70;;
28028;SDS011;15345;59.364;18.016;2023-08-30T07:22:38;2.63;;;2.42;;
28028;SDS011;15345;59.364;18.016;2023-08-30T07:23:57;3.42;;;2.40;;
28028;SDS011;15345;59.364;18.016;2023-08-30T07:25:16;2.75;;;2.53;;
28028;SDS011;15345;59.364;18.016;2023-08-30T07:26:35;4.63;;;2.60;;
28028;SDS011;15345;59.364;18.016;2023-08-30T07:27:54;2.50;;;2.30;;
28028;SDS011;15345;59.364;18.016;2023-08-30T07:29:13;2.70;;;2.50;;
28028;SDS011;15345;59.364;18.016;2023-08-30T07:30:32;7.40;;;3.13;;
28028;SDS011;15345;59.364;18.016;2023-08-30T07:31:54;5.70;;;2.65;;
28028;SDS011;15345;59.364;18.016;2023-08-30T07:33:13;3.72;;;2.70;;
28028;SDS011;15345;59.364;18.016;2023-08-30T07:34:32;3.92;;;2.80;;
28028;SDS011;15345;59.364;18.016;2023-08-30T07:35:53;3.90;;;2.50;;
28028;SDS011;15345;59.364;18.016;2023-08-30T07:37:21;6.28;;;2.88;;
28028;SDS011;15345;59.364;18.016;2023-08-30T07:38:41;2.42;;;2.13;;
28028;SDS011;15345;59.364;18.016;2023-08-30T07:40:00;3.15;;;2.28;;
28028;SDS011;15345;59.364;18.016;2023-08-30T07:41:19;2.90;;;2.60;;
28028;SDS011;15345;59.364;18.016;2023-08-30T07:42:38;3.97;;;2.30;;
28028;SDS011;15345;59.364;18.016;2023-08-30T07:43:57;3.33;;;2.20;;
28028;SDS011;15345;59.364;18.016;2023-08-30T07:45:16;5.95;;;2.42;;
28028;SDS011;15345;59.364;18.016;2023-08-30T07:46:35;4.65;;;2.65;;
28028;SDS011;15345;59.364;18.016;2023-08-30T07:47:54;4.70;;;2.60;;
28028;SDS011;15345;59.364;18.016;2023-08-30T07:49:12;3.03;;;2.35;;
28028;SDS011;15345;59.364;18.016;2023-08-30T07:50:31;2.30;;;1.90;;
28028;SDS011;15345;59.364;18.016;2023-08-30T07:51:50;2.63;;;2.30;;
28028;SDS011;15345;59.364;18.016;2023-08-30T07:53:09;2.60;;;1.95;;
28028;SDS011;15345;59.364;18.016;2023-08-30T07:54:29;5.00;;;2.60;;
28028;SDS011;15345;59.364;18.016;2023-08-30T07:55:48;3.85;;;2.20;;
28028;SDS011;15345;59.364;18.016;2023-08-30T07:57:08;2.30;;;2.05;;
28028;SDS011;15345;59.364;18.016;2023-08-30T07:58:27;2.45;;;1.95;;
28028;SDS011;15345;59.364;18.016;2023-08-30T07:59:46;2.45;;;1.90;;
28028;SDS011;15345;59.364;18.016;2023-08-30T08:01:05;2.60;;;2.08;;
28028;SDS011;15345;59.364;18.016;2023-08-30T08:02:24;4.63;;;2.60;;
28028;SDS011;15345;59.364;18.016;2023-08-30T08:03:43;3.15;;;2.33;;
28028;SDS011;15345;59.364;18.016;2023-08-30T08:05:02;2.42;;;2.30;;
28028;SDS011;15345;59.364;18.016;2023-08-30T08:06:21;3.92;;;2.70;;
28028;SDS011;15345;59.364;18.016;2023-08-30T08:07:42;3.17;;;2.45;;
28028;SDS011;15345;59.364;18.016;2023-08-30T08:09:01;4.80;;;2.38;;
28028;SDS011;15345;59.364;18.016;2023-08-30T08:10:20;3.55;;;2.20;;
28028;SDS011;15345;59.364;18.016;2023-08-30T08:11:39;2.35;;;1.63;;
28028;SDS011;15345;59.364;18.016;2023-08-30T08:14:23;3.05;;;1.90;;
28028;SDS011;15345;59.364;18.016;2023-08-30T08:15:42;3.00;;;2.10;;
28028;SDS011;15345;59.364;18.016;2023-08-30T08:17:04;3.28;;;2.40;;
28028;SDS011;15345;59.364;18.016;2023-08-30T08:18:22;4.57;;;1.92;;
28028;SDS011;15345;59.364;18.016;2023-08-30T08:19:41;5.40;;;2.15;;
28028;SDS011;15345;59.364;18.016;2023-08-30T08:21:02;2.90;;;2.33;;
28028;SDS011;15345;59.364;18.016;2023-08-30T08:22:21;2.60;;;2.40;;
28028;SDS011;15345;59.364;18.016;2023-08-30T08:23:41;3.13;;;2.70;;
28028;SDS011;15345;59.364;18.016;2023-08-30T08:25:00;2.75;;;2.15;;
28028;SDS011;15345;59.364;18.016;2023-08-30T08:26:19;2.80;;;2.10;;
28028;SDS011;15345;59.364;18.016;2023-08-30T08:27:38;1.83;;;1.50;;
28028;SDS011;15345;59.364;18.016;2023-08-30T08:28:58;5.32;;;2.00;;
28028;SDS011;15345;59.364;18.016;2023-08-30T08:30:17;2.97;;;1.85;;
28028;SDS011;15345;59.364;18.016;2023-08-30T08:31:36;8.20;;;2.33;;
28028;SDS011;15345;59.364;18.016;2023-08-30T08:32:55;2.67;;;2.10;;
28028;SDS011;15345;59.364;18.016;2023-08-30T08:34:15;3.53;;;1.95;;
28028;SDS011;15345;59.364;18.016;2023-08-30T08:35:34;3.20;;;1.92;;
28028;SDS011;15345;59.364;18.016;2023-08-30T08:36:52;2.00;;;1.85;;